Time;durP1;ratioP1;P1;durP2;ratioP2;P2;SDS_P1;SDS_P2;PMS_P1;PMS_P2;Temp;Humidity;BMP_temperature;BMP_pressure;BME280_temperature;BME280_humidity;BME280_pressure;Samples;Min_cycle;Max_cycle;Signal;HPM_P1;HPM_P2
2023/05/05 00:01:23;;;;;;;3.00;2.10;;;;;;;5.90;71.37;97152.91;109119;1270;25224;-82
2023/05/05 00:03:54;;;;;;;2.80;2.10;;;;;;;5.88;71.56;97148.06;109096;1251;22515;-83
2023/05/05 00:06:27;;;;;;;3.00;2.30;;;;;;;5.93;71.52;97142.33;109084;1272;22505;-83
2023/05/05 00:08:58;;;;;;;3.60;2.20;;;;;;;6.01;71.74;97136.77;109097;1273;22458;-83
2023/05/05 00:11:29;;;;;;;3.00;2.50;;;;;;;6.10;71.50;97136.25;109109;1269;22636;-83
2023/05/05 00:13:59;;;;;;;3.40;2.70;;;;;;;6.16;71.29;97129.67;109078;1272;22543;-82
2023/05/05 00:16:30;;;;;;;2.90;2.40;;;;;;;6.19;71.08;97130.46;109105;1269;22549;-83
2023/05/05 00:19:02;;;;;;;3.20;2.30;;;;;;;6.21;70.99;97130.30;109115;1266;22573;-82
2023/05/05 00:21:33;;;;;;;3.50;2.30;;;;;;;6.22;71.09;97130.69;109114;1272;22512;-83
2023/05/05 00:24:04;;;;;;;2.70;2.00;;;;;;;6.19;70.82;97129.49;109130;1269;24221;-82
2023/05/05 00:26:35;;;;;;;2.50;2.10;;;;;;;6.11;70.86;97125.90;109068;1273;22824;-83
2023/05/05 00:29:06;;;;;;;3.20;2.20;;;;;;;6.08;70.98;97124.05;109074;1272;22518;-83
2023/05/05 00:31:37;;;;;;;3.70;2.20;;;;;;;6.04;71.13;97118.61;109137;1270;25415;-83
2023/05/05 00:34:08;;;;;;;3.10;2.30;;;;;;;5.98;71.27;97120.61;109127;1266;25293;-83
2023/05/05 00:36:39;;;;;;;3.40;2.00;;;;;;;5.92;71.37;97120.05;109063;1273;22454;-83
2023/05/05 00:39:10;;;;;;;3.10;2.50;;;;;;;5.91;71.48;97121.61;109142;1266;24184;-83
2023/05/05 00:41:41;;;;;;;3.90;2.30;;;;;;;5.94;71.44;97116.61;109104;1272;25261;-83
2023/05/05 00:44:12;;;;;;;4.80;2.50;;;;;;;5.98;71.58;97113.98;109102;1270;22553;-83
2023/05/05 00:46:43;;;;;;;4.30;2.10;;;;;;;6.03;71.47;97118.47;109103;1272;22526;-83
2023/05/05 00:49:15;;;;;;;3.10;2.10;;;;;;;6.06;71.25;97117.27;109095;1269;22696;-83
2023/05/05 00:51:48;;;;;;;3.50;2.40;;;;;;;6.04;70.89;97119.17;109051;1273;22833;-83
2023/05/05 00:54:19;;;;;;;3.30;2.20;;;;;;;6.02;70.93;97120.67;109150;1272;22511;-82
2023/05/05 00:56:51;;;;;;;5.00;2.90;;;;;;;6.02;71.12;97121.20;109068;1273;22513;-82
2023/05/05 00:59:22;;;;;;;5.00;3.50;;;;;;;6.02;71.17;97117.30;109104;1272;22458;-83
2023/05/05 01:01:54;;;;;;;5.00;3.50;;;;;;;6.04;71.45;97111.85;109128;1272;22550;-82
2023/05/05 01:04:27;;;;;;;3.70;3.10;;;;;;;6.03;71.41;97113.11;109125;1272;22477;-83
2023/05/05 01:07:08;;;;;;;5.20;3.10;;;;;;;5.97;71.30;97112.33;109083;1270;22462;-83
2023/05/05 01:09:46;;;;;;;3.50;2.60;;;;;;;5.93;71.43;97111.08;109158;1269;22544;-83
2023/05/05 01:12:24;;;;;;;3.00;2.10;;;;;;;5.86;71.21;97109.86;109162;1270;22486;-82
2023/05/05 01:15:01;;;;;;;4.70;1.90;;;;;;;5.68;71.30;97110.28;109123;1269;25437;-82
2023/05/05 01:17:41;;;;;;;3.90;2.40;;;;;;;5.58;71.77;97114.93;109106;1272;25243;-83
2023/05/05 01:20:21;;;;;;;5.00;2.80;;;;;;;5.57;72.13;97112.23;109099;1273;22695;-82
2023/05/05 01:22:59;;;;;;;3.50;2.50;;;;;;;5.62;72.33;97110.08;109126;1273;26246;-82
2023/05/05 01:26:07;;;;;;;4.50;3.20;;;;;;;5.69;72.31;97108.30;109085;1273;22512;-82
2023/05/05 01:29:01;;;;;;;3.40;2.70;;;;;;;5.74;72.34;97104.96;108988;1270;22540;-82
2023/05/05 01:31:50;;;;;;;6.90;3.40;;;;;;;5.75;72.08;97103.98;109083;1273;22560;-82
2023/05/05 01:34:27;;;;;;;3.70;2.80;;;;;;;5.79;72.23;97103.19;109069;1270;23878;-83
2023/05/05 01:37:10;;;;;;;4.10;2.70;;;;;;;5.80;72.16;97102.36;109088;1273;22813;-82
2023/05/05 01:39:43;;;;;;;4.40;2.80;;;;;;;5.74;72.19;97100.04;109110;1268;22728;-83
2023/05/05 01:42:14;;;;;;;3.10;2.30;;;;;;;5.72;72.05;97099.73;109092;1273;22526;-83
2023/05/05 01:44:47;;;;;;;4.30;2.90;;;;;;;5.65;71.70;97100.80;109106;1264;24211;-83
2023/05/05 01:47:22;;;;;;;8.30;3.40;;;;;;;5.47;71.89;97102.10;109106;1273;22524;-83
2023/05/05 01:49:54;;;;;;;4.80;3.30;;;;;;;5.34;72.16;97095.80;109098;1273;24212;-83
2023/05/05 01:52:26;;;;;;;5.00;2.50;;;;;;;5.28;72.58;97094.41;109119;1273;23157;-83
2023/05/05 01:54:58;;;;;;;4.00;2.50;;;;;;;5.32;72.75;97089.56;109144;1273;22585;-83
2023/05/05 01:57:32;;;;;;;3.40;2.20;;;;;;;5.30;72.90;97089.93;109117;1267;25942;-83
2023/05/05 02:00:05;;;;;;;3.40;2.60;;;;;;;5.25;73.05;97090.05;109177;1270;22592;-82
2023/05/05 02:02:40;;;;;;;4.70;2.80;;;;;;;5.25;73.24;97085.16;109185;1272;22532;-81
2023/05/05 02:05:18;;;;;;;5.10;2.90;;;;;;;5.27;73.39;97080.94;109121;1272;23922;-80
2023/05/05 02:07:53;;;;;;;4.10;2.90;;;;;;;5.26;73.28;97076.71;109258;1264;22558;-83
2023/05/05 02:10:25;;;;;;;5.20;3.50;;;;;;;5.27;73.82;97071.63;109269;1267;26148;-83
2023/05/05 02:12:58;;;;;;;7.60;3.70;;;;;;;5.42;73.90;97077.60;109251;1267;22931;-82
2023/05/05 02:15:31;;;;;;;4.90;2.70;;;;;;;5.54;73.76;97077.94;109200;1272;23263;-82
2023/05/05 02:18:07;;;;;;;4.70;3.30;;;;;;;5.59;74.20;97078.45;109148;1269;22530;-82
2023/05/05 02:20:42;;;;;;;5.70;3.30;;;;;;;5.74;74.09;97079.81;109125;1264;24200;-83
2023/05/05 02:23:15;;;;;;;5.00;3.70;;;;;;;5.81;73.79;97080.48;109150;1269;22508;-82
2023/05/05 02:25:53;;;;;;;8.10;4.10;;;;;;;5.83;73.57;97077.74;109061;1267;22567;-82
2023/05/05 02:28:33;;;;;;;6.70;3.70;;;;;;;5.79;73.40;97075.35;109152;1269;22514;-82
2023/05/05 02:31:06;;;;;;;6.00;3.40;;;;;;;5.72;73.39;97076.16;109142;1253;22518;-82
2023/05/05 02:33:40;;;;;;;5.70;3.40;;;;;;;5.68;73.31;97077.67;109161;1266;25284;-82
2023/05/05 02:36:16;;;;;;;5.70;3.80;;;;;;;5.61;73.21;97081.21;109100;1267;28205;-82
2023/05/05 02:38:53;;;;;;;5.10;3.30;;;;;;;5.49;73.38;97080.02;109084;1270;22511;-82
2023/05/05 02:41:25;;;;;;;5.20;3.90;;;;;;;5.44;73.72;97080.31;109117;1273;23780;-82
2023/05/05 02:44:03;;;;;;;5.10;3.60;;;;;;;5.44;73.91;97080.88;109136;1269;22508;-82
2023/05/05 02:46:37;;;;;;;5.10;3.50;;;;;;;5.42;73.69;97079.23;109078;1272;31181;-82
2023/05/05 02:49:10;;;;;;;5.60;3.70;;;;;;;5.38;73.85;97082.67;109082;1266;22559;-82
2023/05/05 02:51:41;;;;;;;5.70;3.90;;;;;;;5.32;74.00;97083.49;109180;1267;22575;-82
2023/05/05 02:54:12;;;;;;;5.20;3.60;;;;;;;5.26;74.05;97083.59;109176;1273;22473;-82
2023/05/05 02:56:50;;;;;;;5.00;3.60;;;;;;;5.22;74.30;97082.90;109093;1273;25904;-82
2023/05/05 02:59:31;;;;;;;8.30;3.90;;;;;;;5.21;74.40;97084.13;109162;1272;24219;-82
2023/05/05 03:02:06;;;;;;;;;;;;;;;5.13;74.33;97090.06;109182;1267;22851;-82
2023/05/05 03:04:42;;;;;;;5.40;3.60;;;;;;;5.02;74.23;97092.29;109111;1267;22508;-83
2023/05/05 03:07:17;;;;;;;4.30;3.10;;;;;;;4.99;74.42;97095.75;109082;1266;54138;-82
2023/05/05 03:09:56;;;;;;;3.30;2.60;;;;;;;4.99;74.38;97093.55;109156;1249;22524;-82
2023/05/05 03:12:34;;;;;;;4.50;3.20;;;;;;;4.96;74.63;97095.95;109165;1273;22523;-83
2023/05/05 03:15:10;;;;;;;5.80;3.70;;;;;;;4.94;74.97;97095.71;109173;1272;24283;-82
2023/05/05 03:17:46;;;;;;;6.40;3.80;;;;;;;4.98;75.12;97093.02;109172;1265;22508;-82
2023/05/05 03:20:18;;;;;;;5.20;3.30;;;;;;;5.05;75.27;97095.83;109262;1270;22524;-82
2023/05/05 03:22:51;;;;;;;4.90;3.70;;;;;;;5.14;75.49;97097.28;109274;1264;22599;-82
2023/05/05 03:25:22;;;;;;;4.70;3.30;;;;;;;5.21;75.49;97092.65;109228;1272;23199;-83
2023/05/05 03:27:53;;;;;;;4.60;3.20;;;;;;;5.24;75.44;97090.86;109130;1267;22782;-81
2023/05/05 03:30:24;;;;;;;8.20;3.80;;;;;;;5.30;75.48;97085.98;109092;1267;22519;-82
2023/05/05 03:32:55;;;;;;;5.00;3.50;;;;;;;5.35;75.47;97084.45;109119;1273;22529;-82
2023/05/05 03:35:27;;;;;;;6.30;3.30;;;;;;;5.37;75.38;97082.88;109059;1267;22549;-82
2023/05/05 03:37:58;;;;;;;5.70;3.10;;;;;;;5.44;75.49;97085.73;109147;1270;22510;-82
2023/05/05 03:40:29;;;;;;;3.30;2.90;;;;;;;5.51;75.21;97088.20;109085;1270;24212;-82
2023/05/05 03:43:01;;;;;;;3.80;2.50;;;;;;;5.55;75.27;97090.16;109148;1269;22518;-82
2023/05/05 03:45:32;;;;;;;4.80;3.00;;;;;;;5.58;75.18;97094.88;109181;1272;24215;-81
2023/05/05 03:48:03;;;;;;;3.90;3.00;;;;;;;5.55;75.14;97090.80;109613;1266;24247;-82
2023/05/05 03:50:35;;;;;;;3.50;2.80;;;;;;;5.62;75.21;97098.08;109110;1267;22461;-82
2023/05/05 03:53:06;;;;;;;7.30;4.10;;;;;;;5.70;75.17;97095.44;109128;1273;22476;-81
2023/05/05 03:55:37;;;;;;;5.70;4.20;;;;;;;5.82;75.37;97099.50;109132;1263;22533;-81
2023/05/05 03:58:08;;;;;;;4.60;3.90;;;;;;;5.96;75.13;97094.20;109142;1266;22562;-81
2023/05/05 04:00:39;;;;;;;5.00;4.00;;;;;;;6.12;75.13;97097.05;109114;1266;22521;-81
2023/05/05 04:03:10;;;;;;;6.90;4.60;;;;;;;6.26;74.95;97100.57;109076;1250;22506;-82
2023/05/05 04:05:41;;;;;;;7.50;4.30;;;;;;;6.35;74.94;97096.20;109078;1273;22844;-81
2023/05/05 04:08:12;;;;;;;6.20;4.10;;;;;;;6.43;74.56;97099.84;109088;1266;22473;-82
2023/05/05 04:10:43;;;;;;;5.60;3.90;;;;;;;6.46;74.31;97103.52;109161;1272;22536;-81
2023/05/05 04:13:14;;;;;;;5.80;4.00;;;;;;;6.51;74.31;97106.82;109130;1272;22670;-82
2023/05/05 04:15:47;;;;;;;7.40;4.40;;;;;;;6.59;74.12;97110.40;109033;1272;183034;-81
2023/05/05 04:18:18;;;;;;;5.60;4.10;;;;;;;6.69;73.99;97114.25;109125;1272;23054;-82
2023/05/05 04:20:49;;;;;;;6.80;4.40;;;;;;;6.80;73.85;97108.73;109153;1266;25407;-81
2023/05/05 04:23:20;;;;;;;6.70;4.70;;;;;;;6.93;73.47;97106.80;109082;1272;22522;-82
2023/05/05 04:25:51;;;;;;;6.10;4.00;;;;;;;7.06;73.43;97107.56;109159;1269;23651;-81
2023/05/05 04:28:22;;;;;;;7.60;4.50;;;;;;;7.21;72.97;97112.20;109296;1264;22487;-81
2023/05/05 04:30:53;;;;;;;7.00;4.30;;;;;;;7.36;72.85;97111.91;109248;1272;25945;-82
2023/05/05 04:33:24;;;;;;;6.00;4.20;;;;;;;7.52;72.74;97111.05;109162;1272;22514;-82
2023/05/05 04:35:55;;;;;;;5.80;4.00;;;;;;;7.71;72.28;97111.70;109235;1272;25433;-82
2023/05/05 04:38:26;;;;;;;6.70;4.40;;;;;;;8.03;72.07;97116.46;109102;1273;22556;-82
2023/05/05 04:40:58;;;;;;;7.80;4.40;;;;;;;9.06;73.01;97116.81;109131;1273;22524;-82
2023/05/05 04:43:29;;;;;;;6.90;4.50;;;;;;;10.74;72.57;97113.50;109154;1272;22523;-82
2023/05/05 04:46:00;;;;;;;5.80;4.50;;;;;;;12.48;70.34;97106.61;109073;1272;22645;-82
2023/05/05 04:48:33;;;;;;;6.40;4.30;;;;;;;13.78;67.90;97105.23;109057;1273;22624;-82
2023/05/05 04:51:07;;;;;;;7.80;4.60;;;;;;;14.64;64.18;97108.58;109136;1267;22521;-82
2023/05/05 04:53:38;;;;;;;8.50;4.90;;;;;;;14.85;61.23;97104.55;109123;1266;22551;-82
2023/05/05 04:56:09;;;;;;;6.40;4.10;;;;;;;15.42;58.86;97096.20;109109;1263;22476;-82
2023/05/05 04:58:40;;;;;;;6.30;4.20;;;;;;;15.49;56.51;97100.20;109139;1273;22513;-82
2023/05/05 05:01:11;;;;;;;5.30;3.60;;;;;;;15.48;54.72;97100.57;109142;1265;22599;-83
2023/05/05 05:03:42;;;;;;;4.70;3.50;;;;;;;15.36;53.51;97103.41;109117;1272;22538;-82
2023/05/05 05:06:13;;;;;;;5.60;3.50;;;;;;;15.01;52.54;97101.23;109115;1266;22504;-82
2023/05/05 05:08:47;;;;;;;5.00;4.10;;;;;;;14.71;51.72;97110.92;109120;1266;22531;-82
2023/05/05 05:11:20;;;;;;;4.90;3.50;;;;;;;14.82;52.98;97112.00;109072;1266;22694;-82
2023/05/05 05:13:51;;;;;;;6.00;3.90;;;;;;;16.20;53.70;97103.95;109111;1272;24222;-82
2023/05/05 05:16:24;;;;;;;4.30;3.30;;;;;;;17.56;52.49;97100.33;109152;1272;22465;-83
2023/05/05 05:18:55;;;;;;;6.50;3.90;;;;;;;18.07;47.44;97096.75;109100;1270;24168;-83
2023/05/05 05:21:26;;;;;;;4.30;3.40;;;;;;;17.84;48.05;97098.82;109127;1269;22522;-83
2023/05/05 05:23:57;;;;;;;4.80;3.30;;;;;;;18.54;47.92;97098.09;109165;1273;22515;-82
2023/05/05 05:26:28;;;;;;;5.10;3.30;;;;;;;19.21;46.60;97101.61;109057;1273;23215;-83
2023/05/05 05:28:59;;;;;;;4.80;3.30;;;;;;;19.11;45.45;97101.73;109137;1266;22525;-83
2023/05/05 05:31:33;;;;;;;5.20;3.30;;;;;;;19.62;46.03;97099.61;109116;1265;22647;-83
2023/05/05 05:34:04;;;;;;;3.90;2.80;;;;;;;20.00;45.48;97096.63;109186;1266;22528;-83
2023/05/05 05:36:35;;;;;;;4.60;2.70;;;;;;;20.78;45.96;97090.33;109137;1267;22988;-83
2023/05/05 05:39:06;;;;;;;3.60;2.90;;;;;;;21.85;44.68;97089.69;109135;1272;22579;-83
2023/05/05 05:41:37;;;;;;;4.90;3.10;;;;;;;22.63;43.54;97090.58;109122;1262;22550;-83
2023/05/05 05:44:08;;;;;;;4.90;3.60;;;;;;;22.83;42.09;97098.89;109138;1272;22515;-83
2023/05/05 05:46:39;;;;;;;4.30;3.30;;;;;;;22.83;41.80;97097.71;109129;1266;22566;-83
2023/05/05 05:49:10;;;;;;;6.00;3.40;;;;;;;23.10;41.27;97097.35;109139;1272;25230;-83
2023/05/05 05:51:41;;;;;;;3.70;3.30;;;;;;;22.30;39.85;97100.61;109091;1272;22553;-83
2023/05/05 05:54:12;;;;;;;6.80;4.20;;;;;;;21.43;39.55;97102.14;109146;1269;23793;-83
2023/05/05 05:56:43;;;;;;;4.40;3.60;;;;;;;20.95;40.40;97103.00;109101;1270;27189;-83
2023/05/05 05:59:14;;;;;;;4.60;3.70;;;;;;;21.11;40.54;97104.23;109086;1270;22612;-83
2023/05/05 06:01:45;;;;;;;7.00;4.10;;;;;;;21.31;40.55;97107.70;109139;1272;24325;-83
2023/05/05 06:04:16;;;;;;;6.00;3.00;;;;;;;21.80;40.45;97106.97;109141;1266;22524;-83
2023/05/05 06:06:47;;;;;;;4.70;3.40;;;;;;;22.07;40.56;97108.02;109121;1272;22576;-83
2023/05/05 06:09:18;;;;;;;5.10;3.30;;;;;;;22.52;39.63;97104.86;109149;1266;24156;-83
2023/05/05 06:11:49;;;;;;;4.50;3.30;;;;;;;22.69;38.69;97104.89;109140;1266;22495;-83
2023/05/05 06:14:20;;;;;;;3.70;3.30;;;;;;;22.90;38.75;97104.16;109144;1272;24186;-83
2023/05/05 06:16:51;;;;;;;4.40;3.30;;;;;;;23.39;38.78;97108.81;109096;1272;24234;-83
2023/05/05 06:19:22;;;;;;;3.20;2.70;;;;;;;23.88;38.50;97106.29;109130;1273;22654;-83
2023/05/05 06:21:53;;;;;;;3.00;2.60;;;;;;;24.53;37.40;97103.98;109173;1264;22711;-84
2023/05/05 06:24:24;;;;;;;4.50;2.80;;;;;;;25.25;36.98;97105.85;109061;1264;22720;-83
2023/05/05 06:26:55;;;;;;;4.60;2.90;;;;;;;25.89;35.99;97108.91;109110;1266;22653;-84
2023/05/05 06:29:26;;;;;;;4.60;2.80;;;;;;;26.57;35.81;97110.39;109127;1272;22570;-84
2023/05/05 06:31:59;;;;;;;3.40;2.30;;;;;;;27.41;35.05;97113.71;109150;1270;25246;-84
2023/05/05 06:34:30;;;;;;;3.60;2.90;;;;;;;27.71;33.13;97117.95;109178;1272;22518;-83
2023/05/05 06:37:01;;;;;;;3.70;2.90;;;;;;;27.01;30.32;97123.03;109084;1272;22520;-85
2023/05/05 06:39:32;;;;;;;3.10;2.50;;;;;;;25.83;30.92;97125.66;109184;1266;22512;-84
2023/05/05 06:42:03;;;;;;;3.50;2.40;;;;;;;25.47;31.74;97127.08;109125;1270;22566;-84
2023/05/05 06:44:35;;;;;;;3.50;2.60;;;;;;;25.84;32.27;97125.77;109082;1266;22511;-84
2023/05/05 06:47:06;;;;;;;2.60;2.10;;;;;;;26.64;32.75;97125.94;109091;1272;22546;-84
2023/05/05 06:49:37;;;;;;;4.00;2.10;;;;;;;27.69;32.47;97124.38;109121;1266;22511;-84
2023/05/05 06:52:08;;;;;;;3.70;2.10;;;;;;;29.00;31.34;97120.91;109114;1265;22522;-85
2023/05/05 06:54:39;;;;;;;2.50;2.30;;;;;;;30.64;31.52;97116.21;109129;1272;22516;-85
2023/05/05 06:57:12;;;;;;;4.60;1.90;;;;;;;32.35;30.45;97113.69;109118;1273;22687;-85
2023/05/05 06:59:43;;;;;;;2.70;2.20;;;;;;;33.38;25.65;97114.19;109156;1264;22534;-85
2023/05/05 07:02:14;;;;;;;3.70;2.20;;;;;;;33.29;25.71;97116.13;109131;1267;24180;-85
2023/05/05 07:04:45;;;;;;;3.20;2.20;;;;;;;33.21;24.29;97116.39;109183;1265;22533;-85
2023/05/05 07:10:36;;;;;;;2.30;2.10;;;;;;;33.00;24.86;97118.35;109077;1266;22515;-86
2023/05/05 07:13:09;;;;;;;4.60;2.00;;;;;;;33.51;25.87;97116.11;109157;1266;24222;-86
2023/05/05 07:15:45;;;;;;;3.10;1.90;;;;;;;34.59;25.87;97115.16;109155;1266;22514;-86
2023/05/05 07:18:16;;;;;;;3.70;2.30;;;;;;;35.01;22.81;97114.33;109163;1272;23175;-85
2023/05/05 07:20:47;;;;;;;2.20;2.00;;;;;;;34.14;23.21;97114.98;109200;1265;25401;-85
2023/05/05 07:23:20;;;;;;;2.30;2.00;;;;;;;34.72;24.25;97117.49;109170;1269;22535;-86
2023/05/05 07:25:54;;;;;;;3.40;2.00;;;;;;;35.57;24.00;97113.35;109258;1265;22641;-85
2023/05/05 07:28:25;;;;;;;3.10;2.30;;;;;;;36.13;23.52;97111.73;109155;1266;22569;-85
2023/05/05 07:30:56;;;;;;;3.40;2.40;;;;;;;37.22;24.10;97113.27;109214;1265;23274;-86
2023/05/05 07:33:30;;;;;;;3.40;2.30;;;;;;;38.24;23.94;97108.20;109156;1265;22539;-86
2023/05/05 07:36:01;;;;;;;3.40;2.60;;;;;;;38.06;20.03;97110.05;109198;1264;22514;-86
2023/05/05 07:38:34;;;;;;;4.30;2.70;;;;;;;36.55;21.79;97103.80;109243;1251;22528;-86
2023/05/05 07:41:05;;;;;;;2.40;1.70;;;;;;;37.05;22.88;97105.52;109235;1271;22573;-85
2023/05/05 07:43:36;;;;;;;3.80;2.10;;;;;;;36.43;20.18;97102.83;109297;1272;23154;-85
2023/05/05 07:46:07;;;;;;;3.20;1.90;;;;;;;34.52;20.47;97102.77;109244;1272;22712;-85
2023/05/05 07:48:40;;;;;;;2.30;2.00;;;;;;;34.57;22.60;97100.96;109074;1273;22562;-85
2023/05/05 07:51:11;;;;;;;2.00;1.90;;;;;;;35.82;22.97;97101.06;109113;1272;22771;-85
2023/05/05 07:53:42;;;;;;;4.20;2.30;;;;;;;36.88;22.50;97102.38;109052;1272;22562;-85
2023/05/05 07:56:18;;;;;;;2.60;2.10;;;;;;;37.44;21.09;97099.19;109117;1266;22521;-85
2023/05/05 07:58:48;;;;;;;2.10;1.80;;;;;;;37.55;21.59;97099.04;109177;1272;23710;-85
2023/05/05 08:01:20;;;;;;;3.00;2.10;;;;;;;37.90;21.80;97098.63;109117;1272;25281;-85
2023/05/05 08:03:51;;;;;;;3.00;1.80;;;;;;;38.84;21.23;97090.43;109139;1272;22545;-85
2023/05/05 08:06:23;;;;;;;4.30;1.90;;;;;;;39.52;21.29;97089.30;109080;1272;22517;-85
2023/05/05 08:08:54;;;;;;;2.60;2.00;;;;;;;40.53;20.99;97094.30;109085;1273;22513;-85
2023/05/05 08:11:25;;;;;;;3.20;2.40;;;;;;;41.57;20.05;97092.93;109105;1266;22576;-85
2023/05/05 08:13:56;;;;;;;2.20;1.90;;;;;;;41.20;17.15;97094.05;109112;1269;23843;-85
2023/05/05 08:16:27;;;;;;;2.50;2.10;;;;;;;39.47;16.31;97096.45;109074;1272;22538;-85
2023/05/05 08:18:58;;;;;;;2.60;1.90;;;;;;;37.78;17.14;97099.41;109157;1266;23687;-85
2023/05/05 08:21:29;;;;;;;2.30;2.20;;;;;;;37.21;17.88;97094.66;109106;1272;22641;-85
2023/05/05 08:24:00;;;;;;;3.40;2.30;;;;;;;38.02;19.84;97092.02;109124;1272;22678;-84
2023/05/05 08:26:31;;;;;;;3.10;2.30;;;;;;;39.31;19.78;97088.33;109130;1272;22507;-85
2023/05/05 08:29:02;;;;;;;2.70;2.40;;;;;;;39.90;17.85;97089.86;109118;1262;22527;-84
2023/05/05 08:31:35;;;;;;;2.80;2.50;;;;;;;39.06;18.06;97090.25;109155;1272;22516;-84
2023/05/05 08:34:07;;;;;;;2.60;2.40;;;;;;;38.94;16.72;97089.82;109123;1273;22545;-84
2023/05/05 08:36:38;;;;;;;2.80;2.60;;;;;;;38.26;18.84;97091.05;109094;1272;23134;-84
2023/05/05 08:39:09;;;;;;;4.20;2.60;;;;;;;39.24;19.18;97088.04;109119;1266;22575;-84
2023/05/05 08:41:42;;;;;;;3.70;2.70;;;;;;;39.67;18.79;97083.99;109083;1268;22526;-84
2023/05/05 08:44:13;;;;;;;3.80;2.70;;;;;;;39.72;17.99;97086.66;109132;1265;22476;-84
2023/05/05 08:46:44;;;;;;;4.60;3.00;;;;;;;39.56;18.77;97085.61;109107;1272;23489;-84
2023/05/05 08:49:17;;;;;;;4.30;3.40;;;;;;;39.81;19.32;97086.51;109102;1269;22525;-84
2023/05/05 08:51:51;;;;;;;4.60;3.10;;;;;;;39.64;18.52;97085.56;109103;1272;24234;-84
2023/05/05 08:54:27;;;;;;;5.80;3.60;;;;;;;38.03;18.44;97087.53;109105;1272;22476;-84
2023/05/05 08:57:02;;;;;;;5.80;3.40;;;;;;;37.00;19.44;97084.42;109078;1272;22887;-84
2023/05/05 08:59:34;;;;;;;8.70;3.20;;;;;;;36.92;19.94;97085.77;109158;1266;22566;-84
2023/05/05 09:02:07;;;;;;;3.50;3.00;;;;;;;36.74;20.05;97083.54;109169;1269;24573;-84
2023/05/05 09:04:38;;;;;;;4.50;2.70;;;;;;;36.63;20.44;97078.02;109110;1269;22579;-84
2023/05/05 09:07:10;;;;;;;4.00;3.20;;;;;;;36.10;20.01;97076.38;109070;1272;24215;-84
2023/05/05 09:09:42;;;;;;;3.90;2.70;;;;;;;35.26;20.82;97073.98;109129;1272;23286;-84
2023/05/05 09:12:14;;;;;;;5.50;2.40;;;;;;;33.60;19.10;97074.54;109122;1267;22479;-84
2023/05/05 09:14:48;;;;;;;4.10;2.70;;;;;;;30.17;21.52;97072.54;109125;1266;22552;-84
2023/05/05 09:17:25;;;;;;;3.50;2.60;;;;;;;28.72;23.60;97076.62;109071;1266;25997;-84
2023/05/05 09:20:03;;;;;;;3.90;3.10;;;;;;;27.92;24.37;97075.35;109048;1266;25285;-84
2023/05/05 09:22:38;;;;;;;4.30;2.60;;;;;;;26.83;25.10;97070.59;109135;1266;22611;-84
2023/05/05 09:25:15;;;;;;;3.60;2.50;;;;;;;25.63;25.41;97076.21;109083;1265;22511;-84
2023/05/05 09:27:48;;;;;;;2.90;2.10;;;;;;;23.86;26.69;97077.61;109218;1272;22658;-84
2023/05/05 09:30:26;;;;;;;3.80;2.50;;;;;;;22.71;28.22;97077.05;109215;1271;22477;-84
2023/05/05 09:32:57;;;;;;;2.80;2.30;;;;;;;22.24;29.22;97074.37;109215;1266;22749;-84
2023/05/05 09:35:28;;;;;;;4.20;2.50;;;;;;;22.31;29.66;97076.04;109264;1266;22521;-84
2023/05/05 09:38:10;;;;;;;5.80;2.30;;;;;;;22.47;30.02;97076.09;109122;1269;22515;-82
2023/05/05 09:44:15;;;;;;;4.50;3.20;;;;;;;21.95;30.54;97078.06;109047;1266;22559;-83
2023/05/05 09:46:54;;;;;;;5.50;2.40;;;;;;;21.45;31.47;97075.50;109264;1265;23467;-83
2023/05/05 09:49:25;;;;;;;3.30;2.30;;;;;;;21.57;32.08;97077.33;109260;1265;22700;-83
2023/05/05 09:51:57;;;;;;;3.20;2.20;;;;;;;21.41;31.50;97077.76;109240;1269;23720;-82
2023/05/05 09:54:29;;;;;;;8.10;2.40;;;;;;;20.87;32.47;97076.69;109217;1268;22555;-82
2023/05/05 09:57:00;;;;;;;2.90;2.30;;;;;;;20.71;32.92;97074.41;109207;1269;24058;-82
2023/05/05 09:59:37;;;;;;;4.30;2.30;;;;;;;20.66;32.70;97074.28;109225;1269;22543;-81
2023/05/05 10:02:13;;;;;;;2.80;2.10;;;;;;;20.71;33.47;97070.31;109182;1264;25213;-82
2023/05/05 10:04:44;;;;;;;3.60;2.20;;;;;;;20.95;34.06;97072.98;109128;1272;22567;-82
2023/05/05 10:07:26;;;;;;;4.30;2.30;;;;;;;21.09;33.53;97073.04;109108;1273;23720;-82
2023/05/05 10:10:00;;;;;;;3.70;2.80;;;;;;;20.75;33.27;97069.98;109122;1272;22514;-83
2023/05/05 10:12:34;;;;;;;3.70;2.20;;;;;;;20.58;34.25;97069.71;109144;1273;24236;-83
2023/05/05 10:15:08;;;;;;;3.10;2.40;;;;;;;20.77;34.43;97072.73;109163;1265;22539;-83
2023/05/05 10:17:45;;;;;;;2.80;2.10;;;;;;;20.91;34.68;97073.46;109056;1269;22558;-82
2023/05/05 10:20:26;;;;;;;3.40;2.50;;;;;;;20.89;34.37;97073.38;109109;1250;22523;-82
2023/05/05 10:23:03;;;;;;;4.70;2.40;;;;;;;20.93;34.77;97071.61;109068;1272;22524;-81
2023/05/05 10:25:39;;;;;;;4.10;2.30;;;;;;;21.08;34.52;97070.77;109126;1268;22537;-81
2023/05/05 10:28:16;;;;;;;4.50;2.70;;;;;;;20.89;34.15;97067.30;109139;1265;22526;-83
2023/05/05 10:30:53;;;;;;;8.20;2.90;;;;;;;20.55;34.70;97067.46;109165;1269;23108;-83
2023/05/05 10:33:31;;;;;;;4.20;2.20;;;;;;;20.37;34.76;97060.17;109258;1266;23401;-83
2023/05/05 10:36:06;;;;;;;3.50;2.60;;;;;;;20.19;34.94;97061.19;109105;1273;22501;-83
2023/05/05 10:38:44;;;;;;;9.60;2.60;;;;;;;20.29;35.99;97060.11;109102;1265;22498;-83
2023/05/05 10:41:20;;;;;;;4.50;2.60;;;;;;;20.41;35.42;97055.31;109137;1265;22546;-82
2023/05/05 10:43:53;;;;;;;4.50;2.60;;;;;;;20.39;35.18;97052.61;109156;1269;25443;-83
2023/05/05 10:46:24;;;;;;;3.40;2.70;;;;;;;20.17;35.36;97048.36;109135;1250;25473;-83
2023/05/05 10:49:04;;;;;;;2.50;1.90;;;;;;;20.21;35.79;97042.41;109109;1266;24213;-83
2023/05/05 10:51:54;;;;;;;4.80;2.60;;;;;;;20.21;36.07;97042.70;109186;1269;23306;-81
2023/05/05 10:54:32;;;;;;;3.40;2.10;;;;;;;20.32;36.28;97045.49;109183;1272;25281;-83
2023/05/05 10:57:05;;;;;;;2.60;2.10;;;;;;;20.17;34.94;97045.11;109072;1272;24642;-83
2023/05/05 10:59:43;;;;;;;3.30;2.20;;;;;;;19.51;35.43;97047.47;109110;1266;22578;-82
2023/05/05 11:02:25;;;;;;;4.10;2.40;;;;;;;19.07;36.27;97046.84;109187;1269;22515;-81
2023/05/05 11:05:16;;;;;;;5.90;2.50;;;;;;;19.05;36.69;97049.52;109155;1264;22610;-82
2023/05/05 11:07:48;;;;;;;2.60;1.90;;;;;;;18.95;36.16;97043.08;109110;1272;22651;-82
2023/05/05 11:10:21;;;;;;;4.60;2.40;;;;;;;18.77;37.31;97039.61;109147;1273;22459;-82
2023/05/05 11:13:19;;;;;;;4.10;2.10;;;;;;;18.94;37.69;97035.73;109200;1250;25278;-83
2023/05/05 11:15:54;;;;;;;2.60;2.30;;;;;;;19.14;37.35;97036.44;109182;1271;22732;-82
2023/05/05 11:18:36;;;;;;;3.00;2.20;;;;;;;19.34;37.49;97034.19;109422;1264;22598;-82
2023/05/05 11:21:14;;;;;;;3.60;2.10;;;;;;;19.54;38.54;97028.84;109429;1267;22543;-82
2023/05/05 11:23:46;;;;;;;4.70;2.80;;;;;;;19.79;38.36;97028.52;109345;1265;22766;-82
2023/05/05 11:26:39;;;;;;;2.40;2.10;;;;;;;19.80;37.25;97029.37;110595;1264;25440;-82
2023/05/05 11:29:10;;;;;;;3.10;2.20;;;;;;;19.85;37.93;97027.59;109167;1269;22594;-82
2023/05/05 11:31:46;;;;;;;7.50;5.10;;;;;;;19.75;36.16;97027.55;109264;1250;22514;-86
2023/05/05 11:34:28;;;;;;;6.10;2.90;;;;;;;19.56;37.17;97030.30;109128;1265;22542;-85
2023/05/05 11:37:07;;;;;;;4.10;2.60;;;;;;;19.62;37.05;97031.85;109165;1270;22469;-85
2023/05/05 11:39:47;;;;;;;6.90;3.80;;;;;;;19.62;36.58;97030.84;109104;1272;22517;-83
2023/05/05 15:50:22;;;;;;;3.80;1.80;;;;;;;20.07;35.12;96924.02;105715;1303;544758;-81
2023/05/05 15:52:55;;;;;;;5.90;2.00;;;;;;;20.77;34.00;96925.15;108442;1276;23327;-81
2023/05/05 15:55:27;;;;;;;4.10;2.30;;;;;;;21.13;32.76;96919.96;108409;1276;22521;-81
2023/05/05 15:57:58;;;;;;;3.40;2.00;;;;;;;21.42;32.93;96917.50;108349;1278;22559;-80
2023/05/05 16:00:30;;;;;;;4.30;1.80;;;;;;;21.83;33.03;96917.64;108276;1285;22517;-81
2023/05/05 16:03:01;;;;;;;4.00;2.30;;;;;;;22.19;32.25;96915.41;108403;1280;147732;-81
2023/05/05 16:05:32;;;;;;;4.40;2.30;;;;;;;22.34;32.45;96918.83;108650;1272;22524;-78
2023/05/05 16:08:08;;;;;;;4.80;2.50;;;;;;;22.52;32.52;96914.66;108618;1273;22610;-78
2023/05/05 16:10:39;;;;;;;4.00;2.50;;;;;;;22.51;32.17;96917.48;108565;1275;22529;-78
2023/05/05 16:13:11;;;;;;;4.70;3.20;;;;;;;22.55;32.49;96914.87;108595;1279;22514;-78